Time;durP1;ratioP1;P1;durP2;ratioP2;P2;SDS_P1;SDS_P2;PMS_P1;PMS_P2;Temp;Humidity;BMP_temperature;BMP_pressure;BME280_temperature;BME280_humidity;BME280_pressure;Samples;Min_cycle;Max_cycle;Signal;HPM_P1;HPM_P2
2023/09/06 00:02:31;;;;;;;6.18;2.70;;;;;;;19.27;47.77;100100.03;10292039;28;20237;-75
2023/09/06 00:07:33;;;;;;;5.45;2.60;;;;;;;19.57;46.78;100108.09;10288493;28;20816;-75
2023/09/06 00:12:35;;;;;;;3.70;2.75;;;;;;;20.04;46.44;100069.16;10291102;28;20618;-72
2023/09/06 00:17:37;;;;;;;3.20;2.88;;;;;;;19.23;47.97;100087.16;10290982;28;20237;-73
2023/09/06 00:22:39;;;;;;;3.35;2.55;;;;;;;19.40;47.38;100093.56;10298688;28;20238;-75
2023/09/06 00:27:41;;;;;;;3.22;2.83;;;;;;;19.29;47.49;100116.06;10292140;28;20240;-75
2023/09/06 00:32:43;;;;;;;5.90;2.50;;;;;;;19.51;47.95;100027.56;10298603;28;20618;-75
2023/09/06 00:37:45;;;;;;;5.72;3.20;;;;;;;17.92;49.98;100100.19;10287844;28;20237;-72
2023/09/06 00:43:00;;;;;;;6.68;2.72;;;;;;;18.58;48.90;100105.84;10297567;28;20308;-74
2023/09/06 00:48:05;;;;;;;5.03;3.03;;;;;;;18.49;48.66;100112.66;10288785;28;20241;-75
2023/09/06 00:53:08;;;;;;;4.33;2.70;;;;;;;18.95;48.12;100064.28;10302933;28;20238;-75
2023/09/06 00:58:15;;;;;;;4.20;3.13;;;;;;;18.60;48.14;100103.72;10289079;28;20244;-75
2023/09/06 01:03:18;;;;;;;4.97;3.00;;;;;;;19.25;47.73;100014.50;10294254;28;20741;-75
2023/09/06 01:08:28;;;;;;;3.60;2.80;;;;;;;18.98;47.67;100051.06;10284481;28;20543;-74
2023/09/06 01:13:30;;;;;;;3.47;2.80;;;;;;;19.17;47.28;100068.06;10297433;28;20237;-75
2023/09/06 01:18:32;;;;;;;3.53;2.72;;;;;;;18.69;48.25;100076.31;10288481;28;20363;-75
2023/09/06 01:23:38;;;;;;;3.72;2.72;;;;;;;18.57;47.09;100144.03;10292823;28;20455;-75
2023/09/06 01:28:40;;;;;;;3.55;3.03;;;;;;;17.87;48.86;100131.72;10289458;28;20501;-74
2023/09/06 01:33:41;;;;;;;5.38;3.25;;;;;;;18.32;47.98;100112.47;10297579;28;20240;-74
2023/09/06 01:38:43;;;;;;;4.10;3.13;;;;;;;18.92;47.37;100037.59;10291103;28;20229;-73
2023/09/06 01:43:45;;;;;;;4.50;3.42;;;;;;;18.44;48.30;100036.66;10293425;28;20241;-74
2023/09/06 01:48:46;;;;;;;4.80;3.30;;;;;;;18.44;48.38;100031.25;10295706;28;20376;-73
2023/09/06 01:53:48;;;;;;;4.57;3.33;;;;;;;17.93;48.48;100103.72;10299983;28;20670;-73
2023/09/06 01:58:50;;;;;;;3.40;3.00;;;;;;;18.82;47.26;100057.94;10294773;28;20238;-72
2023/09/06 02:03:52;;;;;;;4.53;3.20;;;;;;;18.26;47.85;100094.38;10295729;28;20241;-72
2023/09/06 02:08:54;;;;;;;5.47;3.20;;;;;;;19.32;46.62;100007.91;10294391;28;20258;-73
2023/09/06 02:13:55;;;;;;;3.47;3.10;;;;;;;18.62;47.69;100065.56;10296770;28;20238;-73
2023/09/06 02:18:57;;;;;;;5.47;3.13;;;;;;;18.30;48.12;100059.56;10296386;28;20380;-73
2023/09/06 02:23:59;;;;;;;4.60;3.13;;;;;;;17.75;48.72;100093.75;10289572;28;20241;-72
2023/09/06 02:29:00;;;;;;;6.17;3.30;;;;;;;18.00;48.50;100093.66;10291543;28;20389;-74
2023/09/06 02:34:03;;;;;;;5.43;3.47;;;;;;;18.46;47.55;100048.91;10286591;28;20237;-72
2023/09/06 02:39:04;;;;;;;4.93;3.53;;;;;;;18.05;48.35;100072.16;10291714;28;20321;-73
2023/09/06 02:44:06;;;;;;;4.10;3.30;;;;;;;17.19;49.58;100098.19;10296176;28;20288;-72
2023/09/06 02:49:11;;;;;;;5.43;3.27;;;;;;;17.86;48.27;100086.75;10291265;28;20394;-72
2023/09/06 02:54:17;;;;;;;5.27;3.60;;;;;;;16.71;49.97;100123.03;10290331;28;20296;-72
2023/09/06 02:59:19;;;;;;;5.10;3.60;;;;;;;15.70;52.11;100109.06;10287628;28;20233;-73
2023/09/06 03:04:23;;;;;;;4.83;3.30;;;;;;;17.53;48.95;100021.09;10292636;28;20250;-73
2023/09/06 03:09:28;;;;;;;5.27;3.60;;;;;;;18.45;47.27;99994.97;10289431;28;20227;-73
2023/09/06 03:14:30;;;;;;;3.63;3.33;;;;;;;16.68;49.28;100172.09;10293339;28;20249;-73
2023/09/06 03:19:33;;;;;;;5.80;3.10;;;;;;;17.96;47.89;100065.38;10289296;28;20234;-73
2023/09/06 03:24:40;;;;;;;4.70;3.47;;;;;;;18.57;46.52;100073.56;10284867;28;20240;-73
2023/09/06 03:29:43;;;;;;;4.43;3.50;;;;;;;16.98;48.82;100148.88;10294555;28;20234;-72
2023/09/06 03:34:45;;;;;;;4.00;3.07;;;;;;;18.06;47.57;100032.34;10288609;28;20237;-71
2023/09/06 03:39:48;;;;;;;4.30;3.43;;;;;;;18.43;47.06;100000.59;10293143;28;20248;-72
2023/09/06 03:44:49;;;;;;;5.03;3.00;;;;;;;18.07;47.43;100012.34;10292687;28;20250;-72
2023/09/06 03:49:52;;;;;;;4.30;3.40;;;;;;;18.16;46.57;100061.59;10291807;28;20392;-71
2023/09/06 03:54:55;;;;;;;4.07;3.40;;;;;;;16.64;49.02;100166.31;10299798;28;20402;-73
2023/09/06 03:59:58;;;;;;;5.37;3.53;;;;;;;16.10;50.38;100119.75;10297645;28;20348;-76
2023/09/06 04:05:00;;;;;;;4.93;3.73;;;;;;;17.48;48.52;100004.72;10298763;28;20393;-73
2023/09/06 04:10:02;;;;;;;5.00;3.80;;;;;;;16.91;49.26;100047.25;10304095;28;21285;-73
2023/09/06 04:15:07;;;;;;;4.37;3.73;;;;;;;15.86;50.10;100127.50;10296933;28;20323;-73
2023/09/06 04:20:19;;;;;;;4.50;3.47;;;;;;;15.37;51.25;100093.75;10305821;28;20234;-76
2023/09/06 04:25:22;;;;;;;5.03;3.90;;;;;;;15.29;52.09;100048.94;10302544;28;20761;-73
2023/09/06 04:30:28;;;;;;;4.20;3.70;;;;;;;14.39;52.97;100102.28;10304083;28;20260;-73
2023/09/06 04:35:38;;;;;;;5.40;4.10;;;;;;;14.26;53.82;100060.00;10299920;28;20263;-73
2023/09/06 04:40:43;;;;;;;7.43;4.00;;;;;;;13.84;54.43;100078.84;10305065;28;21184;-75
2023/09/06 04:45:47;;;;;;;5.60;4.17;;;;;;;14.50;54.05;100036.25;10295083;28;20245;-74
2023/09/06 04:50:49;;;;;;;6.87;3.97;;;;;;;13.87;53.99;100101.84;10302631;28;20245;-76
2023/09/06 04:55:52;;;;;;;4.73;3.77;;;;;;;14.75;52.94;100040.00;10304095;28;20710;-76
2023/09/06 05:00:55;;;;;;;5.13;4.10;;;;;;;14.63;52.85;100087.44;10300541;28;20717;-74
2023/09/06 05:05:57;;;;;;;5.90;4.13;;;;;;;13.87;54.19;100096.47;10295268;28;20233;-76
2023/09/06 05:10:58;;;;;;;5.37;4.20;;;;;;;13.61;54.77;100102.50;10302230;28;20231;-75
2023/09/06 05:16:01;;;;;;;4.43;3.90;;;;;;;14.20;53.56;100106.56;10302351;28;20758;-75
2023/09/06 05:21:04;;;;;;;5.53;4.03;;;;;;;14.17;54.30;100101.56;10300751;28;20257;-75
2023/09/06 05:26:06;;;;;;;6.93;4.27;;;;;;;14.23;53.61;100122.31;10298065;28;20292;-75
2023/09/06 05:31:09;;;;;;;4.83;4.33;;;;;;;13.93;54.09;100132.47;10295952;28;20511;-76
2023/09/06 05:36:10;;;;;;;5.50;4.50;;;;;;;13.56;54.68;100146.09;10303197;28;20675;-75
2023/09/06 05:41:12;;;;;;;5.37;3.70;;;;;;;14.11;54.44;100100.53;10297662;28;20257;-75
2023/09/06 05:46:14;;;;;;;4.67;4.17;;;;;;;15.18;52.82;100056.84;10294951;28;20261;-75
2023/09/06 05:51:33;;;;;;;5.27;3.93;;;;;;;14.03;54.60;100167.94;10301253;28;20242;-75
2023/09/06 05:56:35;;;;;;;6.67;4.60;;;;;;;14.61;53.38;100147.91;10298980;28;20237;-74
2023/09/06 06:01:37;;;;;;;4.87;3.93;;;;;;;14.78;53.06;100166.22;10300700;28;20216;-74
2023/09/06 06:06:38;;;;;;;6.30;3.80;;;;;;;15.66;51.51;100156.41;10298960;28;20342;-74
2023/09/06 06:11:40;;;;;;;5.13;4.30;;;;;;;15.16;52.29;100218.78;10295738;28;20725;-75
2023/09/06 06:16:42;;;;;;;4.80;4.00;;;;;;;15.35;52.09;100245.97;10292317;28;20775;-75
2023/09/06 06:21:47;;;;;;;5.73;4.53;;;;;;;16.81;49.37;100247.72;10296098;28;20336;-74
2023/09/06 06:26:49;;;;;;;5.40;4.20;;;;;;;16.91;49.34;100275.09;10302726;28;20269;-75
2023/09/06 06:31:52;;;;;;;5.20;4.27;;;;;;;17.35;48.63;100232.03;10299506;28;20280;-75
2023/09/06 06:36:54;;;;;;;5.00;4.03;;;;;;;15.91;51.56;100304.16;10296568;28;20257;-75
2023/09/06 06:41:55;;;;;;;3.47;3.17;;;;;;;16.39;50.78;100263.44;10294846;28;20313;-75
2023/09/06 06:46:57;;;;;;;5.33;4.17;;;;;;;18.12;47.84;100252.66;10295922;28;20249;-75
2023/09/06 06:51:58;;;;;;;5.23;3.60;;;;;;;17.74;48.02;100349.19;10294854;28;20249;-75
2023/09/06 06:57:00;;;;;;;6.43;4.17;;;;;;;18.55;46.67;100306.84;10297464;28;20241;-75
2023/09/06 07:02:02;;;;;;;5.00;3.70;;;;;;;19.35;45.71;100218.22;10295335;28;20257;-74
2023/09/06 07:07:04;;;;;;;7.60;3.77;;;;;;;18.95;46.39;100241.34;10295837;28;20244;-74
2023/09/06 07:12:06;;;;;;;7.37;4.33;;;;;;;17.19;49.27;100360.47;10299459;28;20308;-74
2023/09/06 07:17:07;;;;;;;7.03;3.80;;;;;;;18.95;46.89;100211.50;10297159;28;20299;-75
2023/09/06 07:22:09;;;;;;;5.37;3.40;;;;;;;18.48;47.75;100261.91;10306449;28;20291;-72
2023/09/06 07:27:11;;;;;;;8.30;3.80;;;;;;;19.00;46.86;100270.47;10301224;28;20301;-71
2023/09/06 07:32:12;;;;;;;5.63;3.77;;;;;;;18.67;48.01;100231.03;10299412;28;20248;-73
2023/09/06 07:37:14;;;;;;;5.13;3.77;;;;;;;17.96;48.84;100322.56;10304132;28;20380;-72
2023/09/06 07:42:16;;;;;;;5.83;3.87;;;;;;;19.64;46.50;100175.00;10305492;28;20304;-73
2023/09/06 07:47:17;;;;;;;5.60;3.93;;;;;;;19.82;45.99;100206.63;10305235;28;20253;-72
2023/09/06 07:52:19;;;;;;;4.83;3.90;;;;;;;20.90;44.71;100209.75;10297546;28;20233;-72
2023/09/06 07:57:21;;;;;;;6.70;4.07;;;;;;;21.02;44.27;100243.19;10302804;28;20272;-73
2023/09/06 08:02:22;;;;;;;7.00;4.03;;;;;;;20.61;44.15;100348.38;10301584;28;20261;-73
2023/09/06 08:07:24;;;;;;;7.83;3.87;;;;;;;20.40;45.29;100279.16;10300250;28;20238;-74
2023/09/06 08:12:26;;;;;;;5.50;3.90;;;;;;;20.74;44.62;100287.47;10298716;28;20708;-74
2023/09/06 08:17:27;;;;;;;5.55;3.75;;;;;;;20.57;44.35;100328.16;10299825;28;20728;-72
2023/09/06 08:22:29;;;;;;;6.10;4.28;;;;;;;21.00;44.02;100337.81;10295758;28;20245;-74
2023/09/06 08:27:45;;;;;;;4.43;3.83;;;;;;;20.52;45.00;100259.28;10296934;28;20242;-74
2023/09/06 08:32:51;;;;;;;8.23;3.83;;;;;;;21.87;43.83;100185.25;10292388;28;20237;-72
2023/09/06 08:37:53;;;;;;;6.10;3.75;;;;;;;21.17;43.86;100277.16;10294891;28;20234;-72
2023/09/06 08:42:55;;;;;;;5.55;3.47;;;;;;;21.50;43.39;100291.97;10304017;28;20242;-72
2023/09/06 08:47:57;;;;;;;6.15;3.78;;;;;;;22.09;42.21;100243.34;10296707;28;20276;-73
2023/09/06 08:53:00;;;;;;;5.20;3.60;;;;;;;22.45;43.07;100210.28;10290894;28;20721;-72
2023/09/06 08:58:05;;;;;;;4.65;3.35;;;;;;;22.43;42.09;100253.34;10294249;28;20954;-73
2023/09/06 09:03:07;;;;;;;4.60;3.80;;;;;;;21.94;42.86;100298.44;10293977;28;20253;-73
2023/09/06 09:08:09;;;;;;;6.20;3.42;;;;;;;22.28;42.47;100256.69;10296083;28;20241;-73
2023/09/06 09:13:15;;;;;;;5.68;3.80;;;;;;;21.89;42.19;100311.94;10292819;28;20265;-72
2023/09/06 09:18:17;;;;;;;4.68;3.50;;;;;;;22.77;41.89;100232.22;10295899;28;20391;-73
2023/09/06 09:23:18;;;;;;;5.75;3.60;;;;;;;23.35;40.92;100218.94;10293729;28;20951;-72
2023/09/06 09:28:21;;;;;;;4.13;3.25;;;;;;;22.99;42.26;100224.00;10288606;28;20242;-73
2023/09/06 09:33:27;;;;;;;4.32;3.50;;;;;;;22.22;42.41;100276.75;10294577;28;20717;-73
2023/09/06 09:38:30;;;;;;;5.40;3.20;;;;;;;23.73;41.07;100191.66;10293164;28;20237;-73
2023/09/06 09:43:33;;;;;;;4.63;3.35;;;;;;;23.65;40.47;100197.59;10295252;28;20796;-73
2023/09/06 09:48:39;;;;;;;6.25;3.47;;;;;;;23.09;41.18;100231.50;10296864;28;20234;-73
2023/09/06 09:53:41;;;;;;;5.47;3.92;;;;;;;23.69;40.70;100202.28;10291841;28;20233;-72
2023/09/06 09:58:43;;;;;;;3.78;3.25;;;;;;;24.07;40.29;100161.22;10297106;28;20229;-73
2023/09/06 10:03:47;;;;;;;4.90;3.22;;;;;;;25.15;39.04;100131.44;10289183;28;20329;-73
2023/09/06 10:08:51;;;;;;;4.60;3.42;;;;;;;23.44;40.64;100243.84;10291048;28;20229;-73
2023/09/06 10:13:53;;;;;;;8.10;3.45;;;;;;;24.26;39.75;100164.34;10295270;28;20651;-72
2023/09/06 10:18:58;;;;;;;5.43;3.53;;;;;;;24.35;40.42;100166.31;10293659;28;20241;-73
2023/09/06 10:24:02;;;;;;;3.85;3.15;;;;;;;25.64;38.87;100109.75;10297630;28;20233;-73
2023/09/06 10:29:09;;;;;;;5.15;3.67;;;;;;;24.43;39.56;100186.84;10288043;28;20234;-72
2023/09/06 10:34:12;;;;;;;3.95;3.30;;;;;;;24.25;40.21;100149.06;10292765;28;20238;-73
2023/09/06 10:39:15;;;;;;;5.45;3.50;;;;;;;24.66;38.98;100174.63;10291727;28;20234;-73
2023/09/06 10:44:16;;;;;;;5.38;3.45;;;;;;;25.89;38.18;100099.00;10287820;28;20244;-73
2023/09/06 10:49:22;;;;;;;5.50;3.35;;;;;;;25.75;37.85;100135.22;10291031;28;20236;-73
2023/09/06 10:54:35;;;;;;;4.45;3.30;;;;;;;23.61;40.04;100184.47;10293869;28;20320;-72
2023/09/06 10:59:37;;;;;;;3.70;3.00;;;;;;;25.16;38.77;100098.31;10290695;28;20237;-73
2023/09/06 11:06:20;;;;;;;7.50;3.03;;;;;;;23.67;40.56;100108.88;10442719;27;20986;-74
2023/09/06 11:11:22;;;;;;;5.07;3.55;;;;;;;23.52;40.65;100076.78;10454258;28;20596;-71
2023/09/06 11:16:24;;;;;;;4.50;3.20;;;;;;;24.50;40.09;100049.84;10456627;28;20277;-72
2023/09/06 11:21:26;;;;;;;4.35;3.30;;;;;;;24.40;39.76;100102.59;10451540;28;20203;-72
2023/09/06 11:26:34;;;;;;;5.50;3.08;;;;;;;25.31;39.29;100037.25;10408099;28;20232;-72
2023/09/06 11:31:36;;;;;;;4.28;3.22;;;;;;;23.97;40.48;100105.47;10447667;28;20219;-74
2023/09/06 11:36:38;;;;;;;4.28;3.40;;;;;;;25.33;39.03;100056.97;10408602;28;20291;-71
2023/09/06 11:41:41;;;;;;;3.80;3.00;;;;;;;24.50;39.29;100091.69;10409286;28;20223;-72
2023/09/06 11:46:43;;;;;;;4.18;3.30;;;;;;;25.54;39.04;100034.97;10410642;28;20252;-74
2023/09/06 11:51:47;;;;;;;4.88;3.35;;;;;;;25.97;38.36;100041.69;10413436;28;20317;-72
2023/09/06 11:56:49;;;;;;;4.38;3.35;;;;;;;24.77;39.74;100070.69;10399326;28;20720;-72
2023/09/06 12:02:03;;;;;;;4.40;3.35;;;;;;;25.43;38.03;100070.63;10409349;28;20243;-72
2023/09/06 12:07:07;;;;;;;3.95;3.05;;;;;;;26.07;38.33;100012.56;10405279;28;20280;-73
2023/09/06 12:12:09;;;;;;;5.43;3.65;;;;;;;24.51;39.62;100066.00;10405037;28;20436;-74
2023/09/06 12:17:11;;;;;;;3.58;2.90;;;;;;;25.44;38.72;100009.28;10377847;28;20224;-73
2023/09/06 12:22:17;;;;;;;4.43;3.25;;;;;;;26.34;37.93;99999.25;10381104;28;20232;-72
2023/09/06 12:27:20;;;;;;;4.18;3.05;;;;;;;26.15;37.64;100015.53;10382444;28;20243;-74
2023/09/06 12:32:23;;;;;;;4.03;3.30;;;;;;;25.83;38.45;100005.84;10381286;28;20271;-73
2023/09/06 12:37:26;;;;;;;4.32;3.22;;;;;;;26.01;37.69;99992.59;10384185;28;20311;-73
2023/09/06 12:42:27;;;;;;;7.07;3.25;;;;;;;26.02;38.01;100003.25;10381146;28;20735;-74
2023/09/06 12:47:29;;;;;;;6.63;3.30;;;;;;;27.26;36.69;99972.91;10377128;28;20257;-74
2023/09/06 12:52:31;;;;;;;4.85;3.20;;;;;;;26.97;37.27;99970.16;10376331;28;20707;-73
2023/09/06 12:57:35;;;;;;;5.93;3.38;;;;;;;25.72;38.74;99970.56;10377535;28;20233;-72
2023/09/06 13:02:37;;;;;;;4.57;3.60;;;;;;;25.93;38.17;99974.00;10378519;28;20316;-74
2023/09/06 13:07:38;;;;;;;9.38;3.50;;;;;;;26.56;37.30;99954.09;10373954;28;20278;-73
2023/09/06 13:12:40;;;;;;;4.13;3.30;;;;;;;26.34;37.84;99973.75;10376656;28;20945;-73
2023/09/06 13:17:42;;;;;;;6.80;3.40;;;;;;;26.72;37.65;99969.34;10366289;28;20715;-73
2023/09/06 13:22:44;;;;;;;7.20;3.70;;;;;;;26.78;36.99;99939.09;10376034;28;20232;-73
2023/09/06 13:27:46;;;;;;;4.75;3.05;;;;;;;26.57;37.23;99959.28;10369061;28;20324;-74
2023/09/06 13:32:48;;;;;;;6.22;3.05;;;;;;;27.20;37.39;99932.03;10371981;28;20226;-74
2023/09/06 13:37:50;;;;;;;5.97;3.33;;;;;;;26.65;38.03;99959.75;10371230;28;20319;-74
2023/09/06 13:42:51;;;;;;;3.90;3.08;;;;;;;27.97;35.98;99909.00;10371975;28;20287;-74
2023/09/06 13:47:53;;;;;;;3.97;3.13;;;;;;;27.49;36.64;99938.25;10373975;28;20229;-74
2023/09/06 13:52:56;;;;;;;4.82;2.80;;;;;;;25.63;37.87;99967.56;10375213;28;20228;-74
2023/09/06 13:57:57;;;;;;;5.07;3.30;;;;;;;26.75;37.09;99919.34;10378481;28;20239;-73
2023/09/06 14:02:59;;;;;;;3.03;2.63;;;;;;;27.53;35.62;99921.19;10366692;28;20229;-83
2023/09/06 14:08:01;;;;;;;5.25;3.70;;;;;;;28.27;36.00;99926.16;10384001;28;20225;-88
2023/09/06 14:13:03;;;;;;;6.55;3.35;;;;;;;27.42;36.20;99950.75;10391462;28;20721;-79
2023/09/06 14:18:06;;;;;;;5.50;3.05;;;;;;;27.17;36.26;99933.41;10409451;28;20255;-75
2023/09/06 14:23:08;;;;;;;4.50;2.80;;;;;;;26.78;36.63;99948.13;10403731;28;20232;-71
2023/09/06 14:28:13;;;;;;;8.35;3.17;;;;;;;27.68;36.29;99901.72;10396760;28;20234;-74
2023/09/06 14:33:14;;;;;;;4.18;3.10;;;;;;;28.38;35.68;99878.91;10403413;28;21029;-71
2023/09/06 14:38:21;;;;;;;5.00;3.40;;;;;;;27.10;35.86;99913.75;10400678;28;20629;-71
2023/09/06 14:43:24;;;;;;;5.35;3.10;;;;;;;26.79;36.06;99924.25;10388840;28;20237;-69
2023/09/06 14:48:25;;;;;;;9.43;3.45;;;;;;;28.01;35.43;99888.06;10363684;28;20340;-70
2023/09/06 14:53:28;;;;;;;3.72;2.90;;;;;;;27.97;35.21;99893.34;10397002;28;20236;-69
2023/09/06 14:58:29;;;;;;;3.58;2.90;;;;;;;27.49;35.41;99893.47;10368774;28;20228;-71
2023/09/06 15:03:33;;;;;;;3.58;2.80;;;;;;;27.89;35.19;99882.22;10362638;28;20232;-70
2023/09/06 15:08:35;;;;;;;3.80;3.03;;;;;;;27.13;35.73;99935.13;10368805;28;20226;-70
2023/09/06 15:13:37;;;;;;;3.38;2.97;;;;;;;27.66;35.29;99910.25;10363048;28;20246;-70
2023/09/06 15:18:38;;;;;;;4.20;3.10;;;;;;;26.93;35.50;99892.25;10363452;28;20228;-70
2023/09/06 15:23:40;;;;;;;3.00;2.42;;;;;;;27.27;35.31;99875.63;10354626;28;20236;-75
2023/09/06 15:28:42;;;;;;;4.50;3.05;;;;;;;27.07;35.38;99901.41;10390840;28;20265;-74
2023/09/06 15:33:45;;;;;;;4.63;2.90;;;;;;;28.15;34.59;99863.34;10363896;28;20830;-74
2023/09/06 15:38:47;;;;;;;4.55;3.28;;;;;;;28.65;34.82;99851.75;10367607;28;20328;-76
2023/09/06 15:43:48;;;;;;;3.75;2.78;;;;;;;27.40;35.03;99923.56;10371524;28;20224;-74
2023/09/06 15:48:50;;;;;;;3.75;2.85;;;;;;;27.42;34.96;99913.09;10366104;28;20315;-69
2023/09/06 15:53:52;;;;;;;5.50;3.25;;;;;;;27.90;34.73;99890.16;10368657;28;20232;-71
2023/09/06 15:58:53;;;;;;;3.47;2.67;;;;;;;28.32;34.33;99866.38;10368457;28;20237;-71
2023/09/06 16:03:55;;;;;;;3.83;2.67;;;;;;;27.93;34.58;99886.81;10372859;28;20323;-71
2023/09/06 16:08:58;;;;;;;7.47;3.22;;;;;;;28.50;34.62;99844.59;10397707;28;20243;-76
2023/09/06 16:14:00;;;;;;;4.15;2.80;;;;;;;28.32;34.84;99841.59;10423972;28;20232;-75
2023/09/06 16:19:01;;;;;;;4.88;2.75;;;;;;;27.68;34.69;99908.06;10426131;28;20259;-76
2023/09/06 16:24:04;;;;;;;3.67;2.78;;;;;;;28.83;34.51;99861.88;10428040;28;20236;-77
2023/09/06 16:29:07;;;;;;;3.72;2.83;;;;;;;28.03;35.21;99881.13;10397820;28;20225;-71
2023/09/06 16:34:12;;;;;;;3.17;2.80;;;;;;;28.63;34.03;99860.31;10374486;28;20233;-71
2023/09/06 16:39:14;;;;;;;5.65;2.70;;;;;;;27.18;35.81;99915.84;10374116;28;20232;-71
2023/09/06 16:44:16;;;;;;;3.63;2.60;;;;;;;28.37;34.74;99851.72;10372890;28;20264;-70
2023/09/06 16:49:18;;;;;;;5.25;2.60;;;;;;;27.92;35.08;99881.59;10369372;28;20259;-72
2023/09/06 16:54:19;;;;;;;3.55;2.53;;;;;;;29.15;33.68;99849.13;10394530;28;21014;-72
2023/09/06 16:59:21;;;;;;;3.10;2.45;;;;;;;27.99;34.38;99913.13;10416125;28;20227;-77
2023/09/06 17:04:23;;;;;;;3.53;2.83;;;;;;;28.81;33.80;99883.38;10394000;28;20237;-77
2023/09/06 17:09:25;;;;;;;3.38;2.70;;;;;;;30.74;32.14;99866.50;10376848;28;20220;-77
2023/09/06 17:14:26;;;;;;;3.83;2.92;;;;;;;30.66;32.39;99903.97;10376909;28;20232;-77
2023/09/06 17:19:28;;;;;;;3.05;2.58;;;;;;;30.16;32.74;99873.81;10375942;28;20221;-78
2023/09/06 17:24:30;;;;;;;5.03;3.03;;;;;;;27.48;35.27;99939.38;10375059;28;20259;-76
2023/09/06 17:29:37;;;;;;;10.57;2.97;;;;;;;28.18;34.50;99904.00;10387098;28;20237;-77
2023/09/06 17:34:38;;;;;;;9.85;2.35;;;;;;;27.89;34.79;99880.28;10377095;28;20819;-74
2023/09/06 17:39:40;;;;;;;5.35;2.80;;;;;;;28.62;34.13;99875.19;10376869;28;20314;-77
2023/09/06 17:44:43;;;;;;;11.00;3.10;;;;;;;26.85;35.60;99934.88;10379759;28;20228;-78
2023/09/06 17:49:45;;;;;;;3.50;2.42;;;;;;;26.64;35.85;99909.56;10375766;28;20228;-77
2023/09/06 17:54:48;;;;;;;3.97;2.30;;;;;;;26.73;36.07;99879.56;10375393;28;20239;-73
2023/09/06 17:59:52;;;;;;;3.75;2.47;;;;;;;26.87;35.64;99920.88;10374026;28;20403;-71
2023/09/06 18:04:53;;;;;;;4.32;2.67;;;;;;;26.79;35.97;99886.66;10368099;28;20379;-72
2023/09/06 18:09:57;;;;;;;4.40;2.78;;;;;;;26.34;36.54;99881.31;10378020;28;20227;-72
2023/09/06 18:14:59;;;;;;;4.50;3.28;;;;;;;26.33;36.16;99893.41;10372351;28;20325;-73
2023/09/06 18:20:09;;;;;;;4.57;2.20;;;;;;;24.84;37.96;99954.38;10372284;28;20228;-74
2023/09/06 18:25:12;;;;;;;5.10;3.15;;;;;;;25.70;36.62;99932.44;10369684;28;20228;-74
2023/09/06 18:30:15;;;;;;;5.57;2.53;;;;;;;25.77;36.49;99945.88;10409182;28;20282;-74
2023/09/06 18:35:18;;;;;;;4.85;3.03;;;;;;;25.69;36.82;99944.50;10413353;28;20973;-73
2023/09/06 18:40:20;;;;;;;4.53;2.80;;;;;;;26.21;36.21;99936.78;10416521;28;20231;-73
2023/09/06 18:45:22;;;;;;;4.15;2.72;;;;;;;26.81;35.27;99947.56;10407916;28;20379;-71
2023/09/06 18:50:24;;;;;;;5.28;2.95;;;;;;;25.76;36.76;99942.31;10412375;28;20623;-70
2023/09/06 18:55:26;;;;;;;4.15;2.55;;;;;;;25.51;37.00;99934.19;10410910;28;20235;-70
2023/09/06 19:00:28;;;;;;;2.75;2.40;;;;;;;25.06;36.82;99986.91;10408008;28;20336;-76
2023/09/06 19:05:33;;;;;;;3.72;2.60;;;;;;;24.81;37.83;99997.88;10378717;28;20228;-75
2023/09/06 19:10:35;;;;;;;4.32;2.60;;;;;;;24.44;37.91;99988.84;10370815;28;20368;-75
2023/09/06 19:15:37;;;;;;;3.28;2.50;;;;;;;24.32;38.72;99991.84;10365142;28;20232;-77
2023/09/06 19:20:40;;;;;;;7.78;3.08;;;;;;;24.77;38.02;99980.41;10408489;28;20321;-74
2023/09/06 19:25:51;;;;;;;3.72;2.63;;;;;;;25.95;36.48;99939.72;10412289;28;20224;-73
2023/09/06 19:30:55;;;;;;;3.60;2.20;;;;;;;24.76;38.20;99965.88;10382778;28;20229;-77
2023/09/06 19:35:57;;;;;;;4.70;2.30;;;;;;;24.85;37.91;99949.72;10377538;28;20256;-75
2023/09/06 19:40:59;;;;;;;4.47;2.55;;;;;;;25.03;37.94;99943.66;10384784;28;20236;-78
2023/09/06 19:46:01;;;;;;;4.40;2.40;;;;;;;24.69;38.07;99979.84;10385619;28;20247;-78
2023/09/06 19:51:04;;;;;;;3.33;2.38;;;;;;;24.50;38.28;99984.22;10386161;28;20319;-78
2023/09/06 19:56:12;;;;;;;4.47;2.53;;;;;;;24.47;38.12;99998.41;10376955;28;20229;-72
2023/09/06 20:01:16;;;;;;;3.92;2.47;;;;;;;25.03;37.42;99987.44;10379035;28;20378;-74
2023/09/06 20:06:18;;;;;;;3.97;2.55;;;;;;;24.63;38.11;99975.44;10383219;28;20256;-76
2023/09/06 20:11:20;;;;;;;3.17;2.30;;;;;;;24.67;37.56;100031.25;10382568;28;20303;-74
2023/09/06 20:16:26;;;;;;;3.47;2.20;;;;;;;24.36;38.07;100014.81;10383024;28;20239;-78
2023/09/06 20:21:28;;;;;;;3.97;2.60;;;;;;;23.59;39.71;100000.88;10427841;28;20242;-78
2023/09/06 20:26:30;;;;;;;3.90;2.58;;;;;;;23.19;40.36;99988.69;10423791;28;20256;-74
2023/09/06 20:31:32;;;;;;;3.38;2.40;;;;;;;23.23;40.35;99986.28;10416911;28;20390;-73
2023/09/06 20:36:33;;;;;;;2.38;2.10;;;;;;;24.54;38.99;99961.50;10426538;28;20255;-74
2023/09/06 20:41:35;;;;;;;3.83;2.80;;;;;;;23.41;39.71;100043.13;10423491;28;20255;-76
2023/09/06 20:46:37;;;;;;;3.65;2.40;;;;;;;23.54;39.94;100014.53;10419488;28;20669;-75
2023/09/06 20:51:39;;;;;;;3.38;2.50;;;;;;;23.08;40.38;100017.00;10418721;28;20208;-74
2023/09/06 20:56:41;;;;;;;5.82;2.60;;;;;;;23.49;40.20;100016.41;10420688;28;20228;-74
2023/09/06 21:01:43;;;;;;;3.25;2.60;;;;;;;22.83;41.38;100015.72;10421552;28;20414;-74
2023/09/06 21:06:44;;;;;;;2.67;2.40;;;;;;;22.25;42.22;99988.19;10418656;28;20243;-74
2023/09/06 21:11:46;;;;;;;4.18;2.47;;;;;;;22.64;41.47;100001.66;10419458;28;20678;-74
2023/09/06 21:16:48;;;;;;;4.45;2.90;;;;;;;21.77;43.40;99990.66;10415648;28;20232;-74
2023/09/06 21:21:50;;;;;;;5.90;2.92;;;;;;;21.59;43.85;99991.81;10417762;28;20236;-74
2023/09/06 21:26:52;;;;;;;4.78;2.90;;;;;;;22.84;41.71;99945.59;10415662;28;20944;-74
2023/09/06 21:31:54;;;;;;;3.03;2.72;;;;;;;22.87;41.55;99997.72;10417902;28;20232;-74
2023/09/06 21:36:55;;;;;;;3.85;2.70;;;;;;;22.24;42.39;100005.63;10412098;28;20323;-74
2023/09/06 21:41:57;;;;;;;4.85;3.00;;;;;;;22.74;42.35;99973.66;10416961;28;20228;-74
2023/09/06 21:46:58;;;;;;;5.30;3.72;;;;;;;21.39;43.57;100041.38;10408330;28;20378;-74
2023/09/06 21:52:00;;;;;;;4.93;3.05;;;;;;;21.18;44.29;99988.50;10411912;28;20674;-74
2023/09/06 21:57:03;;;;;;;3.88;3.00;;;;;;;21.50;44.40;99954.38;10411994;28;20718;-74
2023/09/06 22:02:04;;;;;;;3.75;3.03;;;;;;;21.68;43.72;99970.41;10416163;28;20312;-74
2023/09/06 22:07:06;;;;;;;3.55;3.03;;;;;;;20.95;44.50;100043.09;10420066;28;20897;-74
2023/09/06 22:12:08;;;;;;;4.32;3.22;;;;;;;20.73;45.15;100018.53;10415618;28;20235;-74
2023/09/06 22:17:10;;;;;;;3.65;3.15;;;;;;;21.10;44.67;100040.63;10413620;28;20235;-74
2023/09/06 22:22:12;;;;;;;3.20;2.90;;;;;;;22.03;43.61;99969.19;10404638;28;20238;-74
2023/09/06 22:27:13;;;;;;;3.40;3.10;;;;;;;21.88;44.16;99993.47;10414563;28;20235;-74
2023/09/06 22:32:15;;;;;;;6.43;3.20;;;;;;;19.92;46.47;100041.19;10418430;28;20238;-74
2023/09/06 22:37:17;;;;;;;5.15;3.20;;;;;;;21.57;44.68;99955.00;10416374;28;20239;-74
2023/09/06 22:42:18;;;;;;;3.80;3.28;;;;;;;20.33;46.41;100016.75;10414904;28;20244;-74
2023/09/06 22:47:20;;;;;;;3.97;2.92;;;;;;;21.15;44.93;99969.13;10412727;28;20271;-73
2023/09/06 22:52:23;;;;;;;4.47;3.08;;;;;;;20.92;45.38;99994.63;10419245;28;20254;-74
2023/09/06 22:57:25;;;;;;;3.63;3.13;;;;;;;21.88;43.96;99968.97;10415712;28;20235;-74
2023/09/06 23:02:26;;;;;;;4.85;3.53;;;;;;;22.45;42.88;99993.00;10411738;28;20428;-73
2023/09/06 23:07:28;;;;;;;4.63;3.38;;;;;;;22.08;43.85;99985.59;10408244;28;20228;-74
2023/09/06 23:12:30;;;;;;;5.30;3.58;;;;;;;21.76;43.39;100029.03;10420763;28;20313;-73
2023/09/06 23:17:37;;;;;;;3.78;2.90;;;;;;;20.85;45.56;100000.25;10415223;28;20253;-74